createdAt,value
2022-12-08T00:00:18.350Z,32.60
2022-12-08T00:01:19.268Z,34.10
2022-12-08T00:02:20.297Z,29.30
2022-12-08T00:03:21.042Z,33.30
2022-12-08T00:04:21.545Z,33.10
2022-12-08T00:05:22.401Z,32.30
2022-12-08T00:06:23.265Z,35.70
2022-12-08T00:07:24.105Z,33.10
2022-12-08T00:08:25.462Z,33.00
2022-12-08T00:09:25.880Z,35.50
2022-12-08T00:10:48.556Z,33.80
2022-12-08T00:11:28.430Z,34.00
2022-12-08T00:12:28.282Z,32.70
2022-12-08T00:13:29.164Z,35.50
2022-12-08T00:14:29.987Z,35.20
2022-12-08T00:15:30.845Z,32.30
2022-12-08T00:16:31.735Z,40.70
2022-12-08T00:17:32.547Z,33.50
2022-12-08T00:18:33.412Z,38.70
2022-12-08T00:19:34.281Z,40.30
2022-12-08T00:20:35.117Z,34.50
2022-12-08T00:21:35.972Z,37.20
2022-12-08T00:22:36.827Z,36.30
2022-12-08T00:23:37.688Z,39.40
2022-12-08T00:24:38.567Z,41.50
2022-12-08T00:25:39.395Z,40.60
2022-12-08T00:26:40.250Z,41.10
2022-12-08T00:27:41.101Z,41.00
2022-12-08T00:28:41.979Z,39.10
2022-12-08T00:29:42.818Z,47.90
2022-12-08T00:30:43.682Z,42.60
2022-12-08T00:31:44.595Z,46.30
2022-12-08T00:32:45.444Z,42.50
2022-12-08T00:33:46.344Z,42.00
2022-12-08T00:34:47.205Z,46.10
2022-12-08T00:35:48.054Z,45.00
2022-12-08T00:36:48.908Z,40.50
2022-12-08T00:37:49.782Z,47.70
2022-12-08T00:38:50.655Z,42.20
2022-12-08T00:39:51.534Z,41.30
2022-12-08T00:40:52.372Z,39.20
2022-12-08T00:41:53.226Z,39.90
2022-12-08T00:42:54.082Z,40.60
2022-12-08T00:43:55.384Z,47.50
2022-12-08T00:44:55.709Z,40.70
2022-12-08T00:45:56.692Z,44.30
2022-12-08T00:46:57.538Z,43.20
2022-12-08T00:47:58.415Z,46.20
2022-12-08T00:48:59.279Z,46.90
2022-12-08T00:50:00.378Z,47.10
2022-12-08T00:51:00.749Z,44.40
2022-12-08T00:52:01.598Z,44.10
2022-12-08T00:53:02.444Z,45.40
2022-12-08T00:54:03.307Z,44.60
2022-12-08T00:55:04.180Z,48.20
2022-12-08T00:56:05.013Z,40.00
2022-12-08T00:57:05.871Z,49.80
2022-12-08T00:58:06.722Z,43.40
2022-12-08T00:59:07.606Z,44.50
2022-12-08T01:00:08.423Z,47.00
2022-12-08T01:01:09.332Z,48.90
2022-12-08T01:02:10.140Z,44.10
2022-12-08T01:03:11.075Z,45.40
2022-12-08T01:04:11.921Z,41.00
2022-12-08T01:05:12.803Z,41.20
2022-12-08T01:06:13.653Z,42.30
2022-12-08T01:07:14.516Z,42.20
2022-12-08T01:08:15.555Z,44.50
2022-12-08T01:09:16.347Z,40.30
2022-12-08T01:10:16.717Z,40.10
2022-12-08T01:11:17.558Z,38.50
2022-12-08T01:12:18.405Z,42.50
2022-12-08T01:13:19.259Z,38.40
2022-12-08T01:14:20.141Z,41.80
2022-12-08T01:15:20.979Z,42.80
2022-12-08T01:16:21.865Z,38.90
2022-12-08T01:17:22.683Z,40.00
2022-12-08T01:18:23.536Z,38.70
2022-12-08T01:19:24.418Z,38.40
2022-12-08T01:20:25.289Z,39.90
2022-12-08T01:21:26.143Z,43.00
2022-12-08T01:22:27.012Z,39.80
2022-12-08T01:23:27.866Z,42.70
2022-12-08T01:24:28.731Z,41.00
2022-12-08T01:25:29.605Z,43.20
2022-12-08T01:26:30.443Z,35.50
2022-12-08T01:27:31.297Z,37.10
2022-12-08T01:28:32.148Z,36.70
2022-12-08T01:29:33.041Z,36.60
2022-12-08T01:30:33.911Z,36.30
2022-12-08T01:31:34.722Z,37.30
2022-12-08T01:32:35.564Z,37.40
2022-12-08T01:33:36.427Z,37.80
2022-12-08T01:34:37.347Z,32.80
2022-12-08T01:35:38.198Z,35.60
2022-12-08T01:36:39.049Z,37.40
2022-12-08T01:37:39.902Z,35.00
2022-12-08T01:38:40.761Z,36.40
2022-12-08T01:39:41.622Z,36.20
2022-12-08T01:40:42.499Z,33.90
2022-12-08T01:41:43.329Z,38.80
2022-12-08T01:42:44.186Z,36.50
2022-12-08T01:43:45.041Z,30.90
2022-12-08T01:44:45.958Z,39.70
2022-12-08T01:45:46.797Z,36.30
2022-12-08T01:46:47.612Z,34.80
2022-12-08T01:47:48.549Z,38.50
2022-12-08T01:48:49.373Z,35.60
2022-12-08T01:49:50.332Z,37.50
2022-12-08T01:50:51.187Z,36.00
2022-12-08T01:51:52.046Z,38.00
2022-12-08T01:52:52.898Z,34.30
2022-12-08T01:53:53.755Z,33.30
2022-12-08T01:54:54.830Z,35.80
2022-12-08T01:55:55.231Z,34.70
2022-12-08T01:56:56.065Z,40.50
2022-12-08T01:57:56.938Z,36.10
2022-12-08T01:58:57.797Z,33.40
2022-12-08T01:59:58.852Z,37.10
2022-12-08T02:00:59.245Z,36.50
2022-12-08T02:02:00.075Z,41.10
2022-12-08T02:03:00.997Z,36.10
2022-12-08T02:04:01.853Z,34.60
2022-12-08T02:05:02.720Z,37.50
2022-12-08T02:06:03.573Z,33.60
2022-12-08T02:07:07.992Z,35.50
2022-12-08T02:08:05.157Z,37.60
2022-12-08T02:09:05.990Z,34.70
2022-12-08T02:10:07.153Z,35.70
2022-12-08T02:11:07.562Z,36.80
2022-12-08T02:12:08.397Z,35.90
2022-12-08T02:13:09.263Z,36.00
2022-12-08T02:14:10.116Z,36.00
2022-12-08T02:15:11.001Z,37.90
2022-12-08T02:16:11.934Z,34.20
2022-12-08T02:17:12.751Z,37.90
2022-12-08T02:18:13.621Z,39.20
2022-12-08T02:19:31.449Z,34.70
2022-12-08T02:20:16.233Z,35.60
2022-12-08T02:21:16.088Z,35.40
2022-12-08T02:22:16.942Z,36.20
2022-12-08T02:23:17.807Z,39.00
2022-12-08T02:24:18.661Z,36.80
2022-12-08T02:25:19.834Z,37.00
2022-12-08T02:26:20.254Z,39.10
2022-12-08T02:27:21.088Z,37.90
2022-12-08T02:28:21.945Z,36.10
2022-12-08T02:29:22.808Z,39.10
2022-12-08T02:30:23.846Z,35.10
2022-12-08T02:31:24.272Z,38.00
2022-12-08T02:32:25.067Z,42.00
2022-12-08T02:33:25.932Z,38.40
2022-12-08T02:34:26.783Z,36.60
2022-12-08T02:35:27.831Z,38.70
2022-12-08T02:36:28.196Z,38.00
2022-12-08T02:37:29.058Z,41.60
2022-12-08T02:38:29.923Z,40.00
2022-12-08T02:39:30.790Z,37.20
2022-12-08T02:40:31.660Z,38.00
2022-12-08T02:41:32.552Z,37.80
2022-12-08T02:42:33.388Z,35.90
2022-12-08T02:43:34.237Z,40.10
2022-12-08T02:44:35.090Z,41.00
2022-12-08T02:45:36.001Z,38.10
2022-12-08T02:46:36.868Z,36.50
2022-12-08T02:47:37.686Z,36.60
2022-12-08T02:48:38.544Z,36.60
2022-12-08T02:49:39.399Z,42.60
2022-12-08T02:50:40.323Z,40.50
2022-12-08T02:51:41.178Z,38.90
2022-12-08T02:52:42.039Z,38.60
2022-12-08T02:53:42.893Z,37.10
2022-12-08T02:54:43.752Z,41.80
2022-12-08T02:55:44.616Z,40.90
2022-12-08T02:56:45.495Z,40.30
2022-12-08T02:57:46.334Z,40.30
2022-12-08T02:58:47.193Z,37.00
2022-12-08T02:59:48.050Z,34.70
2022-12-08T03:00:48.944Z,38.10
2022-12-08T03:01:49.890Z,36.10
2022-12-08T03:02:50.828Z,38.90
2022-12-08T03:03:51.650Z,38.50
2022-12-08T03:04:52.507Z,39.50
2022-12-08T03:05:53.368Z,39.30
2022-12-08T03:06:54.222Z,40.20
2022-12-08T03:07:55.149Z,40.70
2022-12-08T03:08:55.938Z,36.80
2022-12-08T03:09:56.795Z,37.80
2022-12-08T03:10:57.662Z,36.10
2022-12-08T03:11:58.534Z,39.90
2022-12-08T03:12:59.369Z,37.50
2022-12-08T03:14:00.220Z,38.90
2022-12-08T03:15:01.076Z,37.40
2022-12-08T03:16:02.038Z,41.40
2022-12-08T03:17:02.426Z,40.00
2022-12-08T03:18:03.282Z,36.40
2022-12-08T03:19:04.137Z,34.40
2022-12-08T03:20:05.215Z,34.80
2022-12-08T03:21:05.673Z,39.80
2022-12-08T03:22:06.527Z,36.10
2022-12-08T03:23:07.381Z,34.50
2022-12-08T03:24:08.231Z,36.10
2022-12-08T03:25:09.093Z,34.70
2022-12-08T03:26:09.956Z,37.50
2022-12-08T03:27:10.834Z,38.30
2022-12-08T03:28:11.668Z,32.90
2022-12-08T03:29:12.522Z,35.90
2022-12-08T03:30:13.372Z,37.50
2022-12-08T03:31:14.458Z,33.80
2022-12-08T03:32:14.801Z,36.00
2022-12-08T03:33:15.655Z,34.80
2022-12-08T03:34:16.512Z,36.50
2022-12-08T03:35:17.363Z,34.30
2022-12-08T03:36:18.222Z,35.80
2022-12-08T03:37:19.081Z,38.20
2022-12-08T03:38:19.934Z,36.50
2022-12-08T03:39:20.786Z,32.70
2022-12-08T03:40:21.644Z,38.20
2022-12-08T03:41:22.826Z,37.30
2022-12-08T03:42:23.205Z,40.00
2022-12-08T03:43:24.036Z,38.60
2022-12-08T03:44:24.900Z,38.20
2022-12-08T03:45:25.767Z,34.30
2022-12-08T03:47:36.249Z,37.30
2022-12-08T03:48:37.081Z,32.40
2022-12-08T03:49:37.935Z,32.70
2022-12-08T03:50:38.794Z,34.10
2022-12-08T03:51:39.656Z,39.70
2022-12-08T03:52:40.509Z,35.30
2022-12-08T03:53:41.360Z,38.30
2022-12-08T03:54:42.212Z,36.50
2022-12-08T03:55:43.065Z,36.30
2022-12-08T03:56:43.930Z,33.70
2022-12-08T03:57:44.795Z,36.40
2022-12-08T03:58:45.652Z,33.90
2022-12-08T03:59:46.514Z,36.50
2022-12-08T04:00:47.372Z,36.60
2022-12-08T04:01:48.783Z,37.60
2022-12-08T04:02:49.165Z,35.70
2022-12-08T04:03:49.979Z,31.30
2022-12-08T04:04:50.839Z,36.20
2022-12-08T04:05:51.693Z,37.10
2022-12-08T04:06:52.555Z,34.10
2022-12-08T04:07:53.475Z,31.60
2022-12-08T04:08:54.282Z,34.90
2022-12-08T04:09:55.132Z,35.70
2022-12-08T04:10:55.984Z,36.50
2022-12-08T04:11:56.856Z,34.80
2022-12-08T04:12:57.730Z,35.60
2022-12-08T04:13:58.560Z,35.20
2022-12-08T04:14:59.412Z,33.00
2022-12-08T04:16:00.336Z,30.90
2022-12-08T04:17:01.228Z,32.30
2022-12-08T04:18:02.120Z,34.50
2022-12-08T04:19:02.905Z,34.90
2022-12-08T04:20:04.093Z,40.20
2022-12-08T04:21:04.647Z,37.30
2022-12-08T04:22:05.507Z,33.30
2022-12-08T04:23:06.364Z,38.10
2022-12-08T04:24:07.298Z,35.00
2022-12-08T04:25:08.151Z,37.40
2022-12-08T04:26:09.004Z,39.70
2022-12-08T04:27:09.865Z,42.50
2022-12-08T04:28:10.740Z,40.90
2022-12-08T04:29:11.570Z,38.90
2022-12-08T04:30:12.424Z,37.10
2022-12-08T04:31:13.397Z,39.60
2022-12-08T04:32:14.238Z,38.00
2022-12-08T04:33:15.107Z,34.00
2022-12-08T04:34:15.914Z,35.90
2022-12-08T04:35:16.769Z,36.50
2022-12-08T04:36:17.624Z,33.30
2022-12-08T04:37:18.511Z,36.50
2022-12-08T04:38:19.338Z,35.40
2022-12-08T04:39:20.193Z,37.20
2022-12-08T04:40:21.046Z,33.10
2022-12-08T04:41:21.902Z,35.90
2022-12-08T04:42:22.774Z,34.80
2022-12-08T04:43:23.645Z,35.20
2022-12-08T04:44:24.483Z,37.70
2022-12-08T04:45:25.342Z,32.80
2022-12-08T04:46:26.288Z,34.10
2022-12-08T04:47:27.118Z,37.60
2022-12-08T04:48:27.987Z,38.10
2022-12-08T04:49:28.834Z,39.70
2022-12-08T04:50:29.679Z,39.60
2022-12-08T04:51:30.533Z,34.90
2022-12-08T04:52:31.396Z,40.00
2022-12-08T04:53:32.263Z,35.30
2022-12-08T04:54:33.104Z,37.90
2022-12-08T04:55:33.957Z,38.90
2022-12-08T04:56:34.810Z,35.20
2022-12-08T04:57:35.732Z,40.40
2022-12-08T04:58:36.602Z,37.80
2022-12-08T04:59:37.442Z,35.80
2022-12-08T05:00:38.299Z,35.50
2022-12-08T05:01:39.409Z,40.30
2022-12-08T05:02:40.301Z,32.90
2022-12-08T05:03:40.621Z,34.00
2022-12-08T05:04:41.406Z,34.60
2022-12-08T05:05:42.262Z,35.70
2022-12-08T05:06:43.119Z,34.40
2022-12-08T05:07:44.025Z,30.20
2022-12-08T05:08:44.850Z,34.10
2022-12-08T05:09:45.706Z,31.30
2022-12-08T05:10:46.559Z,34.00
2022-12-08T05:11:49.222Z,27.90
2022-12-08T05:12:48.225Z,29.70
2022-12-08T05:13:49.100Z,32.60
2022-12-08T05:14:49.942Z,29.50
2022-12-08T05:15:50.897Z,30.80
2022-12-08T05:16:51.803Z,29.00
2022-12-08T05:17:52.625Z,36.00
2022-12-08T05:18:53.511Z,31.90
2022-12-08T05:19:54.347Z,31.50
2022-12-08T05:20:55.201Z,29.60
2022-12-08T05:21:56.054Z,28.10
2022-12-08T05:22:56.917Z,29.70
2022-12-08T05:23:57.801Z,36.60
2022-12-08T05:24:58.654Z,32.20
2022-12-08T05:25:59.510Z,30.90
2022-12-08T05:27:00.365Z,30.70
2022-12-08T05:28:39.181Z,27.50
2022-12-08T05:29:03.045Z,31.20
2022-12-08T05:30:03.407Z,31.00
2022-12-08T05:31:03.554Z,35.50
2022-12-08T05:32:04.514Z,33.30
2022-12-08T05:33:05.354Z,36.70
2022-12-08T05:34:06.240Z,38.60
2022-12-08T05:35:07.064Z,46.90
2022-12-08T05:36:07.935Z,31.80
2022-12-08T05:37:08.774Z,45.10
2022-12-08T05:38:09.636Z,45.10
2022-12-08T05:39:10.493Z,52.40
2022-12-08T05:40:11.347Z,54.30
2022-12-08T05:41:12.204Z,76.70
2022-12-08T05:42:13.102Z,76.00
2022-12-08T05:43:14.229Z,95.80
2022-12-08T05:44:14.596Z,56.00
2022-12-08T05:45:15.439Z,37.60
2022-12-08T05:46:16.386Z,93.40
2022-12-08T05:47:17.213Z,99.60
2022-12-08T05:48:18.239Z,96.90
2022-12-08T05:49:18.612Z,125.60
2022-12-08T05:50:19.461Z,110.10
2022-12-08T05:51:20.373Z,95.60
2022-12-08T05:52:21.225Z,103.10
2022-12-08T05:53:22.088Z,88.40
2022-12-08T05:54:22.941Z,88.40
2022-12-08T05:55:23.796Z,96.60
2022-12-08T05:56:24.663Z,31.30
2022-12-08T05:57:25.518Z,104.80
2022-12-08T05:58:26.715Z,99.30
2022-12-08T05:59:27.091Z,116.60
2022-12-08T06:00:27.926Z,104.20
2022-12-08T06:01:28.779Z,98.40
2022-12-08T06:02:29.802Z,92.10
2022-12-08T06:03:30.239Z,108.20
2022-12-08T06:04:31.086Z,125.90
2022-12-08T06:05:31.881Z,122.00
2022-12-08T06:06:32.733Z,109.40
2022-12-08T06:07:33.591Z,132.60
2022-12-08T06:08:34.714Z,42.20
2022-12-08T06:09:35.067Z,40.40
2022-12-08T06:10:35.940Z,49.60
2022-12-08T06:11:36.972Z,28.00
2022-12-08T06:12:37.332Z,28.80
2022-12-08T06:13:38.213Z,26.10
2022-12-08T06:14:39.088Z,47.80
2022-12-08T06:15:39.931Z,27.60
2022-12-08T06:16:40.871Z,31.30
2022-12-08T06:17:41.703Z,65.10
2022-12-08T06:18:42.709Z,1.30
2022-12-08T06:19:43.082Z,56.40
2022-12-08T06:20:43.885Z,15.50
2022-12-08T06:21:44.729Z,25.80
2022-12-08T06:22:45.592Z,25.00
2022-12-08T06:23:46.455Z,18.90
2022-12-08T06:24:47.323Z,52.50
2022-12-08T06:25:48.176Z,158.90
2022-12-08T06:26:49.033Z,202.00
2022-12-08T06:27:49.882Z,155.80
2022-12-08T06:28:51.208Z,152.30
2022-12-08T06:29:51.582Z,177.30
2022-12-08T06:30:52.416Z,184.50
2022-12-08T06:31:53.353Z,182.70
2022-12-08T06:32:54.204Z,60.90
2022-12-08T06:33:55.070Z,63.40
2022-12-08T06:34:55.939Z,167.90
2022-12-08T06:35:56.767Z,176.90
2022-12-08T06:36:57.622Z,171.60
2022-12-08T06:37:58.486Z,162.70
2022-12-08T06:38:59.350Z,161.80
2022-12-08T06:40:00.207Z,183.90
2022-12-08T06:41:01.072Z,168.30
2022-12-08T06:42:01.932Z,161.90
2022-12-08T06:43:02.781Z,167.10
2022-12-08T06:44:03.653Z,150.50
2022-12-08T06:45:04.538Z,185.60
2022-12-08T06:46:05.444Z,185.00
2022-12-08T06:47:06.254Z,179.60
2022-12-08T06:48:07.109Z,183.00
2022-12-08T06:49:08.005Z,172.60
2022-12-08T06:50:08.875Z,173.10
2022-12-08T06:51:09.694Z,158.50
2022-12-08T06:52:10.548Z,164.30
2022-12-08T06:53:11.395Z,154.90
2022-12-08T06:54:12.707Z,133.10
2022-12-08T06:55:29.127Z,145.20
2022-12-08T06:56:14.808Z,162.20
2022-12-08T06:57:14.662Z,101.70
2022-12-08T06:58:15.518Z,144.10
2022-12-08T06:59:16.380Z,122.20
2022-12-08T07:00:17.254Z,130.20
2022-12-08T07:01:18.144Z,114.30
2022-12-08T07:02:19.051Z,115.00
2022-12-08T07:03:19.837Z,126.20
2022-12-08T07:04:20.700Z,77.10
2022-12-08T07:05:21.571Z,94.80
2022-12-08T07:06:22.386Z,109.10
2022-12-08T07:07:23.247Z,116.40
2022-12-08T07:08:24.175Z,116.50
2022-12-08T07:09:24.990Z,118.10
2022-12-08T07:10:25.841Z,118.40
2022-12-08T07:11:26.695Z,117.60
2022-12-08T07:12:27.552Z,107.00
2022-12-08T07:13:28.408Z,146.80
2022-12-08T07:14:29.271Z,137.50
2022-12-08T07:15:30.167Z,146.60
2022-12-08T07:16:31.058Z,121.90
2022-12-08T07:17:31.889Z,130.70
2022-12-08T07:18:32.747Z,127.90
2022-12-08T07:19:33.611Z,147.80
2022-12-08T07:20:34.493Z,161.10
2022-12-08T07:21:35.336Z,153.80
2022-12-08T07:22:36.196Z,161.50
2022-12-08T07:23:37.054Z,27.00
2022-12-08T07:24:37.910Z,167.20
2022-12-08T07:25:38.762Z,170.40
2022-12-08T07:26:39.626Z,0.30
2022-12-08T07:27:40.480Z,160.00
2022-12-08T07:28:41.331Z,152.90
2022-12-08T07:29:42.195Z,155.60
2022-12-08T07:30:43.119Z,140.20
2022-12-08T07:31:43.961Z,149.10
2022-12-08T07:32:44.819Z,145.10
2022-12-08T07:33:45.697Z,143.50
2022-12-08T07:34:47.358Z,170.70
2022-12-08T07:35:49.469Z,119.60
2022-12-08T07:36:47.860Z,151.70
2022-12-08T07:37:48.705Z,154.50
2022-12-08T07:38:49.558Z,137.00
2022-12-08T07:39:50.423Z,142.80
2022-12-08T07:40:51.276Z,172.80
2022-12-08T07:41:52.132Z,173.80
2022-12-08T07:42:52.984Z,155.70
2022-12-08T07:43:53.844Z,194.10
2022-12-08T07:44:55.208Z,156.60
2022-12-08T07:45:55.631Z,164.70
2022-12-08T07:46:56.190Z,159.50
2022-12-08T07:47:57.064Z,171.50
2022-12-08T07:48:57.931Z,181.60
2022-12-08T07:49:58.809Z,164.50
2022-12-08T07:50:59.698Z,119.80
2022-12-08T07:52:00.504Z,146.50
2022-12-08T07:53:01.356Z,160.90
2022-12-08T07:54:02.213Z,125.90
2022-12-08T07:55:03.202Z,149.40
2022-12-08T07:56:04.070Z,7.50
2022-12-08T07:57:04.949Z,141.60
2022-12-08T07:58:05.819Z,145.50
2022-12-08T07:59:06.684Z,141.20
2022-12-08T08:00:07.737Z,78.20
2022-12-08T08:01:08.350Z,118.30
2022-12-08T08:02:23.548Z,151.60
2022-12-08T08:03:10.527Z,162.00
2022-12-08T08:04:10.419Z,106.90
2022-12-08T08:05:11.314Z,102.60
2022-12-08T08:06:12.131Z,143.40
2022-12-08T08:07:12.949Z,125.20
2022-12-08T08:08:13.839Z,108.50
2022-12-08T08:09:14.674Z,146.20
2022-12-08T08:10:15.541Z,155.30
2022-12-08T08:11:20.820Z,144.30
2022-12-08T08:12:33.499Z,149.20
2022-12-08T08:13:18.897Z,179.70
2022-12-08T08:14:18.752Z,159.30
2022-12-08T08:15:19.696Z,161.00
2022-12-08T08:16:20.684Z,162.00
2022-12-08T08:17:21.294Z,171.80
2022-12-08T08:18:21.709Z,167.90
2022-12-08T08:19:22.570Z,172.10
2022-12-08T08:20:23.438Z,111.40
2022-12-08T08:21:48.845Z,172.00
2022-12-08T08:22:26.045Z,164.70
2022-12-08T08:23:25.902Z,175.70
2022-12-08T08:24:26.766Z,201.30
2022-12-08T08:25:27.620Z,219.60
2022-12-08T08:26:28.476Z,170.10
2022-12-08T08:27:29.329Z,122.70
2022-12-08T08:28:30.193Z,159.10
2022-12-08T08:29:31.055Z,160.00
2022-12-08T08:30:31.930Z,177.10
2022-12-08T08:31:33.032Z,175.70
2022-12-08T08:32:33.395Z,178.60
2022-12-08T08:33:34.255Z,149.70
2022-12-08T08:34:35.124Z,135.80
2022-12-08T08:35:35.984Z,160.40
2022-12-08T08:36:36.859Z,166.40
2022-12-08T08:37:37.662Z,111.30
2022-12-08T08:38:38.514Z,164.30
2022-12-08T08:39:39.370Z,173.00
2022-12-08T08:40:40.234Z,166.60
2022-12-08T08:41:41.087Z,148.90
2022-12-08T08:42:41.938Z,132.80
2022-12-08T08:43:42.791Z,120.20
2022-12-08T08:44:43.645Z,137.80
2022-12-08T08:45:44.509Z,113.10
2022-12-08T08:46:45.444Z,144.50
2022-12-08T08:47:46.235Z,151.20
2022-12-08T08:48:47.096Z,163.10
2022-12-08T08:49:48.654Z,141.50
2022-12-08T08:50:48.709Z,145.50
2022-12-08T08:51:49.110Z,157.00
2022-12-08T08:52:49.891Z,155.70
2022-12-08T08:53:50.792Z,116.90
2022-12-08T08:54:51.647Z,124.60
2022-12-08T08:55:52.688Z,154.10
2022-12-08T08:56:53.038Z,171.20
2022-12-08T08:57:53.897Z,136.70
2022-12-08T08:58:54.769Z,157.90
2022-12-08T08:59:55.632Z,173.10
2022-12-08T09:00:56.688Z,54.90
2022-12-08T09:01:57.195Z,0.20
2022-12-08T09:02:57.564Z,116.00
2022-12-08T09:03:58.598Z,125.60
2022-12-08T09:04:58.977Z,127.80
2022-12-08T09:05:59.861Z,114.60
2022-12-08T09:07:00.792Z,122.00
2022-12-08T09:08:01.597Z,131.00
2022-12-08T09:09:02.416Z,116.70
2022-12-08T09:10:03.727Z,141.80
2022-12-08T09:11:04.187Z,170.30
2022-12-08T09:12:04.538Z,154.30
2022-12-08T09:13:05.392Z,169.30
2022-12-08T09:14:06.244Z,168.00
2022-12-08T09:15:07.132Z,154.50
2022-12-08T09:16:08.055Z,152.30
2022-12-08T09:17:08.940Z,175.00
2022-12-08T09:18:09.779Z,152.40
2022-12-08T09:19:10.637Z,150.10
2022-12-08T09:20:11.489Z,138.00
2022-12-08T09:21:12.683Z,147.70
2022-12-08T09:22:13.163Z,141.20
2022-12-08T09:23:13.943Z,133.50
2022-12-08T09:24:14.815Z,169.80
2022-12-08T09:25:15.670Z,153.00
2022-12-08T09:26:16.536Z,148.30
2022-12-08T09:27:17.433Z,172.70
2022-12-08T09:28:18.296Z,0.20
2022-12-08T09:29:19.145Z,131.60
2022-12-08T09:30:19.999Z,115.00
2022-12-08T09:31:20.937Z,202.90
2022-12-08T09:32:21.804Z,151.60
2022-12-08T09:33:22.656Z,151.00
2022-12-08T09:34:23.508Z,118.30
2022-12-08T09:35:24.363Z,114.80
2022-12-08T09:36:25.245Z,56.90
2022-12-08T09:37:26.214Z,151.00
2022-12-08T09:38:26.985Z,116.50
2022-12-08T09:39:27.846Z,125.50
2022-12-08T09:40:28.697Z,127.00
2022-12-08T09:41:36.494Z,109.40
2022-12-08T09:42:31.318Z,128.20
2022-12-08T09:43:31.204Z,125.00
2022-12-08T09:44:32.063Z,147.70
2022-12-08T09:45:32.919Z,131.60
2022-12-08T09:46:33.855Z,116.40
2022-12-08T09:47:36.247Z,134.90
2022-12-08T09:48:35.290Z,146.60
2022-12-08T09:49:36.160Z,128.50
2022-12-08T09:50:37.017Z,137.30
2022-12-08T09:51:38.199Z,141.80
2022-12-08T09:52:38.663Z,114.80
2022-12-08T09:53:39.464Z,109.50
2022-12-08T09:54:40.428Z,134.90
2022-12-08T09:55:41.281Z,118.80
2022-12-08T09:56:42.148Z,126.40
2022-12-08T09:57:43.004Z,139.30
2022-12-08T09:58:43.856Z,114.60
2022-12-08T09:59:44.724Z,134.90
2022-12-08T10:00:45.590Z,132.20
2022-12-08T10:01:46.539Z,178.20
2022-12-08T10:02:47.365Z,128.30
2022-12-08T10:03:48.197Z,136.80
2022-12-08T10:04:49.159Z,138.10
2022-12-08T10:05:49.969Z,67.10
2022-12-08T10:06:51.175Z,129.20
2022-12-08T10:07:51.725Z,131.60
2022-12-08T10:08:52.034Z,101.10
2022-12-08T10:09:52.888Z,116.00
2022-12-08T10:10:53.747Z,115.20
2022-12-08T10:11:54.611Z,114.70
2022-12-08T10:12:55.465Z,130.20
2022-12-08T10:13:56.318Z,137.80
2022-12-08T10:14:57.178Z,136.90
2022-12-08T10:15:58.107Z,119.70
2022-12-08T10:16:58.987Z,108.40
2022-12-08T10:17:59.803Z,123.60
2022-12-08T10:19:00.637Z,116.30
2022-12-08T10:20:01.984Z,117.10
2022-12-08T10:21:02.407Z,136.30
2022-12-08T10:22:03.273Z,108.90
2022-12-08T10:23:04.250Z,114.70
2022-12-08T10:24:05.041Z,71.40
2022-12-08T10:25:05.894Z,122.70
2022-12-08T10:26:06.747Z,125.30
2022-12-08T10:27:07.613Z,134.20
2022-12-08T10:28:08.469Z,145.90
2022-12-08T10:29:09.318Z,122.60
2022-12-08T10:30:10.174Z,189.80
2022-12-08T10:31:11.068Z,161.10
2022-12-08T10:32:11.893Z,152.10
2022-12-08T10:33:12.779Z,72.70
2022-12-08T10:34:13.606Z,100.90
2022-12-08T10:35:14.459Z,139.40
2022-12-08T10:36:15.316Z,138.40
2022-12-08T10:37:16.671Z,122.90
2022-12-08T10:38:17.045Z,110.40
2022-12-08T10:39:17.879Z,103.60
2022-12-08T10:40:18.781Z,119.10
2022-12-08T10:41:19.625Z,94.90
2022-12-08T10:42:20.669Z,111.70
2022-12-08T10:43:21.022Z,86.10
2022-12-08T10:44:21.876Z,101.60
2022-12-08T10:45:22.733Z,95.60
2022-12-08T10:46:23.658Z,101.60
2022-12-08T10:47:24.683Z,136.70
2022-12-08T10:48:25.054Z,110.30
2022-12-08T10:49:25.891Z,93.40
2022-12-08T10:50:26.744Z,109.70
2022-12-08T10:51:27.598Z,123.70
2022-12-08T10:52:28.482Z,121.90
2022-12-08T10:53:29.354Z,131.70
2022-12-08T10:54:30.192Z,144.20
2022-12-08T10:55:31.054Z,203.50
2022-12-08T10:56:31.900Z,149.10
2022-12-08T10:57:32.765Z,151.50
2022-12-08T10:58:33.647Z,141.90
2022-12-08T10:59:34.487Z,135.10
2022-12-08T11:00:35.553Z,137.10
2022-12-08T11:01:36.219Z,144.30
2022-12-08T11:02:36.729Z,147.50
2022-12-08T11:03:37.617Z,138.30
2022-12-08T11:04:38.481Z,139.20
2022-12-08T11:05:39.316Z,139.50
2022-12-08T11:06:40.196Z,102.10
2022-12-08T11:07:41.078Z,43.10
2022-12-08T11:08:41.914Z,3.30
2022-12-08T11:09:42.756Z,109.50
2022-12-08T11:10:43.611Z,212.40
2022-12-08T11:11:44.504Z,149.20
2022-12-08T11:12:45.377Z,141.10
2022-12-08T11:13:46.233Z,140.80
2022-12-08T11:14:47.101Z,123.60
2022-12-08T11:15:47.960Z,138.70
2022-12-08T11:16:48.896Z,48.90
2022-12-08T11:17:53.336Z,98.60
2022-12-08T11:18:51.551Z,161.60
2022-12-08T11:19:51.383Z,161.60
2022-12-08T11:20:52.241Z,155.50
2022-12-08T11:21:53.133Z,168.00
2022-12-08T11:22:53.997Z,159.80
2022-12-08T11:23:54.969Z,162.30
2022-12-08T11:24:55.741Z,178.20
2022-12-08T11:25:56.594Z,201.40
2022-12-08T11:26:57.452Z,52.90
2022-12-08T11:27:58.666Z,119.60
2022-12-08T11:28:59.033Z,123.30
2022-12-08T11:29:59.887Z,147.50
2022-12-08T11:31:00.740Z,144.60
2022-12-08T11:32:01.678Z,76.30
2022-12-08T11:33:02.520Z,164.30
2022-12-08T11:34:03.391Z,187.00
2022-12-08T11:35:04.229Z,57.90
2022-12-08T11:36:05.082Z,57.90
2022-12-08T11:37:05.987Z,7.60
2022-12-08T11:38:20.963Z,134.10
2022-12-08T11:39:08.753Z,134.20
2022-12-08T11:40:08.976Z,44.60
2022-12-08T11:41:15.525Z,93.10
2022-12-08T11:42:11.240Z,120.40
2022-12-08T11:43:11.197Z,129.20
2022-12-08T11:44:12.074Z,38.90
2022-12-08T11:45:12.937Z,174.80
2022-12-08T11:46:13.877Z,211.50
2022-12-08T11:47:14.704Z,184.40
2022-12-08T11:48:15.674Z,156.50
2022-12-08T11:49:16.545Z,54.80
2022-12-08T11:50:19.563Z,112.80
2022-12-08T11:51:18.265Z,13.10
2022-12-08T11:52:19.120Z,97.20
2022-12-08T11:53:20.027Z,198.30
2022-12-08T11:54:20.987Z,91.40
2022-12-08T11:55:21.755Z,177.60
2022-12-08T11:56:22.643Z,132.50
2022-12-08T11:57:23.462Z,5.80
2022-12-08T11:58:24.366Z,32.40
2022-12-08T11:59:25.183Z,62.50
2022-12-08T12:00:26.051Z,106.70
2022-12-08T12:01:26.921Z,189.80
2022-12-08T12:02:27.848Z,87.20
2022-12-08T12:03:29.225Z,68.30
2022-12-08T12:04:29.539Z,70.20
2022-12-08T12:05:56.684Z,35.00
2022-12-08T12:06:54.305Z,24.60
2022-12-08T12:07:32.908Z,93.00
2022-12-08T12:08:32.750Z,41.40
2022-12-08T12:09:33.716Z,76.00
2022-12-08T12:10:34.509Z,67.00
2022-12-08T12:11:35.364Z,83.70
2022-12-08T12:12:39.700Z,54.30
2022-12-08T12:13:36.786Z,75.10
2022-12-08T12:14:37.651Z,23.10
2022-12-08T12:15:38.503Z,143.80
2022-12-08T12:16:39.418Z,35.40
2022-12-08T12:17:40.230Z,81.70
2022-12-08T12:18:41.093Z,40.00
2022-12-08T12:19:41.998Z,64.90
2022-12-08T12:20:42.829Z,141.90
2022-12-08T12:21:43.692Z,64.20
2022-12-08T12:22:44.550Z,53.00
2022-12-08T12:23:45.414Z,9.30
2022-12-08T12:24:46.381Z,62.10
2022-12-08T12:25:47.156Z,69.20
2022-12-08T12:26:48.009Z,22.20
2022-12-08T12:27:48.877Z,64.70
2022-12-08T12:28:50.152Z,170.30
2022-12-08T12:29:55.463Z,82.80
2022-12-08T12:30:52.385Z,200.50
2022-12-08T12:31:52.191Z,106.60
2022-12-08T12:32:53.049Z,65.40
2022-12-08T12:33:53.911Z,566.60
2022-12-08T12:34:54.787Z,129.60
2022-12-08T12:35:55.621Z,92.60
2022-12-08T12:36:56.475Z,208.30
2022-12-08T12:37:57.332Z,156.20
2022-12-08T12:38:58.661Z,437.40
2022-12-08T12:39:59.123Z,114.50
2022-12-08T12:40:59.892Z,85.30
2022-12-08T12:42:00.744Z,31.90
2022-12-08T12:43:01.607Z,45.80
2022-12-08T12:44:02.650Z,512.60
2022-12-08T12:45:03.005Z,1549.50
2022-12-08T12:46:03.909Z,673.30
2022-12-08T12:47:04.734Z,1999.90
2022-12-08T12:48:05.591Z,1535.70
2022-12-08T12:49:06.459Z,159.20
2022-12-08T12:50:07.692Z,1773.80
2022-12-08T12:51:08.126Z,944.90
2022-12-08T12:52:08.996Z,44.10
2022-12-08T12:53:13.854Z,790.00
2022-12-08T12:54:10.829Z,1002.70